Time;durP1;ratioP1;P1;durP2;ratioP2;P2;SDS_P1;SDS_P2;PMS_P1;PMS_P2;Temp;Humidity;BMP_temperature;BMP_pressure;BME280_temperature;BME280_humidity;BME280_pressure;Samples;Min_cycle;Max_cycle;Signal;HPM_P1;HPM_P2
2021/04/17 00:01:33;;;;;;;7.53;6.50;;;4.40;73.50;;;;;;5031705;28;20277;-83
2021/04/17 00:03:59;;;;;;;8.53;6.90;;;4.30;73.80;;;;;;5035417;28;20244;-82
2021/04/17 00:06:26;;;;;;;9.93;7.20;;;4.10;75.00;;;;;;5033458;28;20724;-84
2021/04/17 00:08:52;;;;;;;7.53;6.73;;;4.00;75.90;;;;;;5035830;28;20653;-82
2021/04/17 00:11:20;;;;;;;11.33;7.60;;;4.30;76.50;;;;;;5036525;28;20222;-83
2021/04/17 00:13:47;;;;;;;8.23;7.10;;;4.40;75.10;;;;;;5033279;28;20256;-85
2021/04/17 00:16:13;;;;;;;9.33;7.47;;;4.40;74.60;;;;;;5028276;28;20700;-82
2021/04/17 00:18:40;;;;;;;8.93;7.63;;;4.30;75.10;;;;;;5033387;28;20214;-83
2021/04/17 00:21:06;;;;;;;10.03;7.93;;;4.30;75.60;;;;;;5028392;28;20226;-85
2021/04/17 00:23:33;;;;;;;9.73;7.77;;;4.20;76.10;;;;;;5028419;28;20198;-84
2021/04/17 00:26:00;;;;;;;11.77;7.67;;;4.20;77.30;;;;;;5036722;28;20245;-83
2021/04/17 00:28:27;;;;;;;9.23;7.40;;;4.20;77.00;;;;;;5025263;28;20198;-83
2021/04/17 00:30:53;;;;;;;9.13;7.67;;;4.30;76.80;;;;;;5030914;28;20774;-83
2021/04/17 00:33:20;;;;;;;8.60;7.00;;;4.30;76.30;;;;;;5032466;28;20570;-82
2021/04/17 00:35:46;;;;;;;9.17;7.67;;;4.20;76.70;;;;;;5031715;28;20626;-84
2021/04/17 00:38:13;;;;;;;8.23;7.23;;;4.20;76.70;;;;;;5027806;28;20198;-85
2021/04/17 00:40:39;;;;;;;11.00;8.50;;;4.10;77.40;;;;;;5031397;28;20229;-82
2021/04/17 00:43:06;;;;;;;10.73;8.37;;;4.10;77.40;;;;;;5032271;28;20195;-82
2021/04/17 00:45:34;;;;;;;10.13;7.90;;;4.10;78.20;;;;;;5031743;28;20238;-83
2021/04/17 00:48:01;;;;;;;9.13;7.87;;;4.20;78.30;;;;;;5031858;28;20240;-82
2021/04/17 00:50:37;;;;;;;10.23;8.47;;;4.20;78.30;;;;;;5031750;28;20317;-85
2021/04/17 00:53:06;;;;;;;9.93;8.17;;;4.10;78.40;;;;;;5031375;28;20216;-82
2021/04/17 00:55:35;;;;;;;10.97;8.43;;;4.10;78.20;;;;;;5043620;28;20233;-81
2021/04/17 00:58:03;;;;;;;10.43;8.83;;;4.10;78.90;;;;;;5032643;28;20654;-83
2021/04/17 01:00:29;;;;;;;12.03;9.37;;;4.10;79.60;;;;;;5033131;28;20697;-81
2021/04/17 01:03:04;;;;;;;10.03;8.50;;;4.20;78.90;;;;;;5033095;28;20199;-82
2021/04/17 01:05:32;;;;;;;9.63;8.27;;;4.20;78.70;;;;;;5030694;28;20217;-82
2021/04/17 01:08:02;;;;;;;11.23;8.97;;;4.20;79.00;;;;;;5025442;28;20203;-82
2021/04/17 01:10:33;;;;;;;11.67;8.20;;;4.20;79.70;;;;;;5031873;28;20244;-82
2021/04/17 01:13:00;;;;;;;10.50;8.73;;;4.20;79.30;;;;;;5029059;28;20198;-82
2021/04/17 01:15:27;;;;;;;10.40;8.83;;;4.20;79.70;;;;;;5031071;28;20246;-82
2021/04/17 01:17:57;;;;;;;12.93;9.97;;;4.10;79.80;;;;;;5031238;28;20217;-81
2021/04/17 01:20:30;;;;;;;13.60;9.43;;;4.00;80.40;;;;;;5032123;28;20580;-82
2021/04/17 01:23:05;;;;;;;11.63;9.30;;;4.00;80.30;;;;;;5028819;28;20754;-82
2021/04/17 01:25:46;;;;;;;13.87;9.07;;;4.00;81.00;;;;;;5038467;28;20233;-82
2021/04/17 01:28:13;;;;;;;11.10;9.60;;;4.00;81.30;;;;;;5027376;28;20194;-84
2021/04/17 01:30:40;;;;;;;16.13;9.73;;;4.00;81.10;;;;;;5032985;28;20603;-82
2021/04/17 01:33:07;;;;;;;15.10;10.23;;;4.00;81.30;;;;;;5034435;28;20221;-84
2021/04/17 01:35:34;;;;;;;13.33;9.87;;;3.90;81.90;;;;;;5033874;28;20222;-83
2021/04/17 01:38:20;;;;;;;15.53;10.07;;;3.90;82.60;;;;;;5033951;28;20206;-83
2021/04/17 01:40:50;;;;;;;12.47;9.57;;;3.90;82.60;;;;;;5032571;28;20234;-84
2021/04/17 01:43:18;;;;;;;10.80;8.93;;;3.90;82.50;;;;;;5029142;28;20199;-81
2021/04/17 01:45:45;;;;;;;13.37;10.03;;;4.00;82.50;;;;;;5031603;28;20588;-82
2021/04/17 01:48:13;;;;;;;13.03;10.57;;;4.10;82.10;;;;;;5037581;28;20221;-86
2021/04/17 01:50:41;;;;;;;12.00;9.87;;;4.10;81.70;;;;;;5037923;28;20238;-81
2021/04/17 01:53:15;;;;;;;13.43;9.70;;;4.00;82.10;;;;;;5037766;28;20195;-82
2021/04/17 01:55:42;;;;;;;13.50;10.20;;;3.90;82.70;;;;;;5044639;28;20243;-82
2021/04/17 01:58:10;;;;;;;12.43;9.53;;;3.80;83.70;;;;;;5032604;28;20225;-83
2021/04/17 02:00:36;;;;;;;12.13;9.93;;;3.80;83.60;;;;;;5037564;28;20222;-82
2021/04/17 02:03:03;;;;;;;12.93;10.40;;;3.80;84.00;;;;;;5035684;28;20209;-82
2021/04/17 02:05:29;;;;;;;12.63;10.03;;;3.70;84.30;;;;;;5039678;28;20227;-82
2021/04/17 02:07:59;;;;;;;11.13;8.90;;;3.70;84.70;;;;;;5029794;28;20248;-85
2021/04/17 02:10:25;;;;;;;12.03;8.70;;;3.70;84.90;;;;;;5030942;28;20250;-83
2021/04/17 02:12:52;;;;;;;11.13;8.70;;;3.80;84.50;;;;;;5032958;28;20206;-82
2021/04/17 02:15:19;;;;;;;12.80;9.97;;;3.80;84.30;;;;;;5031901;28;20258;-82
2021/04/17 02:17:51;;;;;;;12.43;9.63;;;3.80;83.70;;;;;;5032329;28;20230;-82
2021/04/17 02:20:25;;;;;;;11.97;8.63;;;3.80;84.00;;;;;;5032090;28;20288;-82
2021/04/17 02:22:51;;;;;;;12.80;9.20;;;3.70;83.90;;;;;;5029341;28;20199;-85
2021/04/17 02:25:19;;;;;;;11.37;8.63;;;3.70;83.20;;;;;;5042271;28;20245;-82
2021/04/17 02:27:45;;;;;;;11.43;8.60;;;3.70;83.10;;;;;;5032338;28;20203;-83
2021/04/17 02:30:12;;;;;;;10.80;8.80;;;3.70;82.80;;;;;;5033306;28;20720;-82
2021/04/17 02:32:39;;;;;;;11.93;8.37;;;3.70;82.70;;;;;;5026821;28;20223;-82
2021/04/17 02:35:07;;;;;;;10.10;8.07;;;3.70;82.60;;;;;;5033739;28;20230;-82
2021/04/17 02:37:33;;;;;;;11.30;8.33;;;3.60;82.30;;;;;;5038626;28;20210;-86
2021/04/17 02:40:00;;;;;;;9.27;8.00;;;3.60;82.00;;;;;;5032473;28;20229;-82
2021/04/17 02:42:26;;;;;;;10.63;7.90;;;3.50;82.10;;;;;;5034699;28;20191;-82
2021/04/17 02:44:52;;;;;;;11.20;7.87;;;3.40;82.90;;;;;;5035821;28;20203;-82
2021/04/17 02:47:19;;;;;;;11.43;8.23;;;3.40;83.10;;;;;;5037627;28;20221;-82
2021/04/17 02:49:46;;;;;;;10.77;7.90;;;3.40;83.10;;;;;;5033581;28;20198;-83
2021/04/17 02:52:12;;;;;;;10.93;8.70;;;3.40;83.10;;;;;;5028151;28;20203;-81
2021/04/17 02:54:38;;;;;;;9.53;7.63;;;3.40;83.40;;;;;;5033411;28;20601;-82
2021/04/17 02:57:05;;;;;;;12.57;7.80;;;3.40;83.00;;;;;;5033167;28;20229;-82
2021/04/17 02:59:32;;;;;;;10.17;8.17;;;3.40;83.00;;;;;;5035097;28;20200;-82
2021/04/17 03:01:58;;;;;;;9.27;7.33;;;3.40;83.00;;;;;;5031592;28;20697;-82
2021/04/17 03:04:24;;;;;;;9.20;7.43;;;3.40;82.50;;;;;;5037536;28;20190;-82
2021/04/17 03:06:51;;;;;;;9.43;8.07;;;3.50;82.40;;;;;;5032530;28;20241;-87
2021/04/17 03:09:18;;;;;;;11.07;8.07;;;3.50;82.70;;;;;;5029288;28;20205;-82
2021/04/17 03:11:44;;;;;;;10.87;8.23;;;3.60;82.40;;;;;;5031993;28;20594;-82
2021/04/17 03:14:10;;;;;;;10.57;8.07;;;3.50;82.50;;;;;;5036080;28;20727;-82
2021/04/17 03:16:36;;;;;;;9.67;7.70;;;3.60;82.50;;;;;;5030339;28;20276;-82
2021/04/17 03:19:03;;;;;;;9.83;8.10;;;3.60;82.00;;;;;;5030374;28;20211;-82
2021/04/17 03:21:29;;;;;;;8.50;7.07;;;3.60;82.10;;;;;;5033610;28;20233;-82
2021/04/17 03:23:56;;;;;;;11.17;8.13;;;3.60;82.10;;;;;;5026730;28;20199;-86
2021/04/17 03:26:22;;;;;;;9.80;7.50;;;3.60;81.50;;;;;;5033522;28;20456;-82
2021/04/17 03:28:49;;;;;;;9.07;7.63;;;3.60;81.60;;;;;;5036828;28;20237;-82
2021/04/17 03:31:17;;;;;;;11.50;7.70;;;3.60;81.90;;;;;;5030412;28;20258;-82
2021/04/17 03:33:44;;;;;;;9.90;7.77;;;3.60;82.50;;;;;;5030408;28;20198;-85
2021/04/17 03:36:10;;;;;;;12.00;8.07;;;3.50;82.50;;;;;;5036705;28;20225;-82
2021/04/17 03:38:36;;;;;;;10.07;7.63;;;3.50;83.00;;;;;;5031424;28;20278;-82
2021/04/17 03:41:03;;;;;;;8.87;7.43;;;3.60;81.70;;;;;;5029332;28;20223;-82
2021/04/17 03:43:30;;;;;;;8.73;6.60;;;3.50;81.40;;;;;;5028846;28;20195;-82
2021/04/17 03:45:56;;;;;;;9.87;7.13;;;3.50;81.50;;;;;;5025988;28;20265;-82
2021/04/17 03:48:22;;;;;;;8.37;6.33;;;3.50;81.00;;;;;;5029829;28;20266;-82
2021/04/17 03:50:49;;;;;;;11.60;7.83;;;3.40;81.20;;;;;;5031704;28;20225;-82
2021/04/17 03:53:16;;;;;;;8.70;6.63;;;3.40;80.80;;;;;;5034064;28;20205;-82
2021/04/17 03:55:42;;;;;;;8.17;6.83;;;3.40;80.80;;;;;;5035427;28;20276;-83
2021/04/17 03:58:09;;;;;;;10.53;7.03;;;3.40;80.80;;;;;;5034218;28;20198;-82
2021/04/17 04:00:36;;;;;;;7.87;6.67;;;3.40;81.10;;;;;;5029356;28;20223;-82
2021/04/17 04:03:02;;;;;;;8.53;7.13;;;3.40;80.40;;;;;;5031547;28;20202;-82
2021/04/17 04:05:28;;;;;;;8.70;6.73;;;3.40;79.70;;;;;;5028765;28;20235;-82
2021/04/17 04:07:55;;;;;;;7.90;6.90;;;3.40;80.00;;;;;;5029682;28;20191;-82
2021/04/17 04:10:21;;;;;;;8.43;6.93;;;3.40;80.50;;;;;;5033338;28;20234;-83
2021/04/17 04:12:48;;;;;;;10.03;7.07;;;3.40;80.10;;;;;;5032901;28;20203;-82
2021/04/17 04:15:15;;;;;;;7.90;6.53;;;3.40;79.80;;;;;;5029234;28;20229;-82
2021/04/17 04:17:41;;;;;;;8.60;6.97;;;3.40;80.10;;;;;;5040569;28;20202;-84
2021/04/17 04:20:09;;;;;;;9.33;7.67;;;3.50;80.20;;;;;;5028176;28;20305;-82
2021/04/17 04:22:36;;;;;;;9.13;7.20;;;3.40;80.30;;;;;;5026189;28;20199;-82
2021/04/17 04:25:04;;;;;;;9.17;7.17;;;3.40;80.90;;;;;;5020136;28;20234;-83
2021/04/17 04:27:30;;;;;;;10.30;7.03;;;3.40;81.30;;;;;;5038882;28;20700;-85
2021/04/17 04:29:56;;;;;;;10.93;6.97;;;3.30;81.00;;;;;;5031332;28;20202;-83
2021/04/17 04:32:23;;;;;;;9.03;7.37;;;3.10;82.10;;;;;;5030503;28;20399;-82
2021/04/17 04:34:50;;;;;;;9.03;7.27;;;3.30;81.60;;;;;;5028776;28;20206;-82
2021/04/17 04:37:16;;;;;;;10.20;7.67;;;3.40;81.20;;;;;;5032194;28;20198;-86
2021/04/17 04:39:42;;;;;;;9.43;7.30;;;3.40;81.10;;;;;;5031231;28;20256;-83
2021/04/17 04:42:09;;;;;;;9.70;7.50;;;3.50;80.40;;;;;;5031782;28;20668;-82
2021/04/17 04:44:36;;;;;;;9.67;7.97;;;3.50;81.20;;;;;;5032338;28;20653;-82
2021/04/17 04:47:03;;;;;;;10.80;7.70;;;3.60;80.90;;;;;;5029596;28;20680;-85
2021/04/17 04:49:30;;;;;;;12.80;8.00;;;3.60;80.30;;;;;;5027072;28;20201;-82
2021/04/17 04:51:57;;;;;;;9.67;7.70;;;3.60;81.00;;;;;;5029370;28;20285;-86
2021/04/17 04:54:23;;;;;;;9.50;7.77;;;3.60;80.10;;;;;;5025129;28;20206;-82
2021/04/17 04:56:49;;;;;;;12.03;7.67;;;3.70;80.20;;;;;;5031102;28;20315;-83
2021/04/17 04:59:15;;;;;;;10.47;8.10;;;3.60;80.10;;;;;;5025323;28;20665;-85
2021/04/17 05:01:42;;;;;;;9.27;7.40;;;3.60;80.90;;;;;;5018877;28;20700;-82
2021/04/17 05:04:08;;;;;;;10.23;8.17;;;3.60;80.60;;;;;;5029082;28;20317;-84
2021/04/17 05:06:35;;;;;;;10.60;8.43;;;3.70;80.40;;;;;;5029888;28;20313;-82
2021/04/17 05:09:02;;;;;;;9.20;7.67;;;3.80;79.70;;;;;;5026865;28;20636;-87
2021/04/17 05:11:28;;;;;;;9.27;7.60;;;3.90;79.30;;;;;;5029883;28;20310;-82
2021/04/17 05:13:54;;;;;;;13.17;8.33;;;4.00;78.40;;;;;;5030392;28;20210;-83
2021/04/17 05:16:20;;;;;;;9.57;7.80;;;4.10;78.30;;;;;;5029095;28;20280;-82
2021/04/17 05:18:47;;;;;;;8.83;7.60;;;4.10;77.70;;;;;;5030607;28;20203;-82
2021/04/17 05:21:13;;;;;;;9.60;7.90;;;4.20;78.30;;;;;;5028146;28;20646;-83
2021/04/17 05:23:40;;;;;;;11.90;8.70;;;4.30;77.80;;;;;;5028883;28;20206;-85
2021/04/17 05:26:06;;;;;;;11.63;8.30;;;4.40;77.70;;;;;;5037792;28;20225;-83
2021/04/17 05:28:32;;;;;;;10.63;8.63;;;4.60;76.60;;;;;;5029748;28;20256;-81
2021/04/17 05:30:59;;;;;;;9.30;8.13;;;4.70;76.60;;;;;;5025967;28;20230;-87
2021/04/17 05:33:25;;;;;;;9.53;8.53;;;4.90;76.10;;;;;;5023380;28;20195;-85
2021/04/17 05:35:52;;;;;;;9.83;8.23;;;5.00;75.20;;;;;;5024731;28;20223;-82
2021/04/17 05:38:18;;;;;;;12.87;8.60;;;5.20;74.90;;;;;;5031389;28;20286;-83
2021/04/17 05:40:46;;;;;;;10.10;7.57;;;5.30;74.00;;;;;;5032510;28;20226;-85
2021/04/17 05:43:12;;;;;;;12.30;8.87;;;5.40;71.80;;;;;;5029298;28;20268;-82
2021/04/17 05:45:39;;;;;;;11.33;8.70;;;5.50;70.40;;;;;;5030153;28;20235;-82
2021/04/17 05:48:06;;;;;;;10.93;8.53;;;5.50;70.30;;;;;;5026058;28;20651;-86
2021/04/17 05:50:32;;;;;;;12.13;8.97;;;5.60;70.40;;;;;;5026357;28;20296;-82
2021/04/17 05:52:59;;;;;;;11.83;9.30;;;5.60;70.40;;;;;;5025933;28;20207;-87
2021/04/17 05:55:25;;;;;;;11.87;9.47;;;5.70;70.40;;;;;;5016259;28;20362;-83
2021/04/17 05:57:53;;;;;;;12.13;9.57;;;5.70;70.40;;;;;;5029941;28;20222;-85
2021/04/17 06:00:20;;;;;;;10.37;8.93;;;5.70;70.40;;;;;;5023705;28;20250;-82
2021/04/17 06:02:47;;;;;;;12.43;9.73;;;5.60;70.40;;;;;;5027426;28;20206;-82
2021/04/17 06:05:14;;;;;;;12.07;9.30;;;5.60;70.40;;;;;;5023947;28;20226;-82
2021/04/17 06:07:40;;;;;;;10.30;8.90;;;5.50;70.30;;;;;;5021986;28;20238;-86
2021/04/17 06:10:08;;;;;;;11.77;9.57;;;5.40;70.20;;;;;;5025241;28;20233;-82
2021/04/17 06:12:34;;;;;;;11.87;10.13;;;5.40;70.10;;;;;;5023313;28;20297;-83
2021/04/17 06:15:01;;;;;;;14.50;10.53;;;5.20;72.80;;;;;;5022502;28;20207;-85
2021/04/17 06:17:28;;;;;;;12.50;9.87;;;5.10;73.20;;;;;;5023661;28;20207;-82
2021/04/17 06:19:54;;;;;;;13.13;10.10;;;5.10;72.70;;;;;;5023689;28;20684;-83
2021/04/17 06:22:20;;;;;;;17.13;11.93;;;5.20;74.50;;;;;;5025349;28;20203;-87
2021/04/17 06:24:47;;;;;;;15.53;11.53;;;5.20;75.10;;;;;;5024658;28;20338;-86
2021/04/17 06:27:13;;;;;;;14.53;11.43;;;5.50;73.80;;;;;;5028740;28;20225;-83
2021/04/17 06:29:40;;;;;;;12.80;10.60;;;5.60;72.80;;;;;;5025637;28;20699;-86
2021/04/17 06:32:08;;;;;;;14.07;11.13;;;5.70;72.60;;;;;;5028740;28;20225;-85
2021/04/17 06:34:34;;;;;;;15.53;11.47;;;5.80;70.60;;;;;;5025760;28;20199;-84
2021/04/17 06:37:00;;;;;;;17.03;11.20;;;5.80;70.60;;;;;;5028344;28;20237;-84
2021/04/17 06:39:26;;;;;;;15.00;10.77;;;5.90;70.70;;;;;;5031403;28;20289;-84
2021/04/17 06:41:54;;;;;;;12.20;10.23;;;6.00;70.70;;;;;;5035546;28;20230;-84
2021/04/17 06:44:23;;;;;;;15.47;11.97;;;6.00;70.70;;;;;;5038306;28;20297;-84
2021/04/17 06:46:50;;;;;;;16.87;12.20;;;6.00;70.70;;;;;;5038213;28;20241;-84
2021/04/17 06:49:37;;;;;;;16.40;12.40;;;6.00;70.70;;;;;;5037926;28;20509;-84
2021/04/17 06:52:03;;;;;;;15.33;12.07;;;6.10;70.90;;;;;;5038375;28;20226;-84
2021/04/17 06:54:30;;;;;;;19.70;13.10;;;6.20;71.00;;;;;;5045191;28;20191;-84
2021/04/17 06:56:56;;;;;;;18.73;13.93;;;6.50;71.30;;;;;;5030329;28;20763;-85
2021/04/17 06:59:24;;;;;;;19.90;14.60;;;6.70;71.50;;;;;;5035483;28;20205;-85
2021/04/17 07:01:50;;;;;;;19.80;15.03;;;6.80;71.60;;;;;;5040171;28;20227;-84
2021/04/17 07:04:17;;;;;;;19.03;15.00;;;6.70;71.50;;;;;;5038333;28;20202;-83
2021/04/17 07:06:44;;;;;;;18.97;15.13;;;6.80;71.60;;;;;;5027282;28;20317;-88
2021/04/17 07:09:11;;;;;;;22.17;15.30;;;6.90;71.70;;;;;;5024865;28;20267;-85
2021/04/17 07:11:37;;;;;;;18.07;13.93;;;6.70;71.50;;;;;;5034259;28;20224;-84
2021/04/17 07:14:09;;;;;;;18.63;14.13;;;6.50;71.30;;;;;;5036205;28;20199;-83
2021/04/17 07:16:57;;;;;;;19.63;15.10;;;6.10;73.30;;;;;;5035609;28;20770;-83
2021/04/17 07:19:23;;;;;;;18.27;14.27;;;6.20;75.80;;;;;;5027806;28;20207;-83
2021/04/17 07:21:55;;;;;;;17.20;13.67;;;6.00;76.90;;;;;;5019316;28;20235;-85
2021/04/17 07:24:25;;;;;;;19.53;14.00;;;5.90;76.70;;;;;;5029645;28;20207;-83
2021/04/17 07:26:52;;;;;;;15.33;12.87;;;5.60;77.80;;;;;;5025932;28;20227;-83
2021/04/17 07:29:19;;;;;;;18.07;13.50;;;5.70;78.40;;;;;;5029825;28;20248;-84
2021/04/17 07:31:53;;;;;;;18.97;14.07;;;5.60;78.90;;;;;;5029724;28;20238;-86
2021/04/17 07:34:23;;;;;;;16.63;12.70;;;5.60;79.30;;;;;;5025774;28;20202;-84
2021/04/17 07:36:55;;;;;;;19.47;13.93;;;5.50;80.10;;;;;;5023032;28;20223;-83
2021/04/17 07:39:37;;;;;;;18.67;13.07;;;5.30;80.60;;;;;;5031579;28;20206;-83
2021/04/17 07:42:07;;;;;;;16.73;13.40;;;5.20;82.70;;;;;;5030460;28;20770;-88
2021/04/17 07:44:38;;;;;;;19.70;14.03;;;5.10;83.10;;;;;;5035558;28;20280;-83
2021/04/17 07:47:06;;;;;;;18.57;14.53;;;5.00;84.50;;;;;;5026646;28;20226;-82
2021/04/17 07:49:33;;;;;;;21.73;14.93;;;5.00;84.80;;;;;;5032383;28;20206;-83
2021/04/17 07:52:08;;;;;;;18.90;14.43;;;5.20;85.80;;;;;;5019714;28;20280;-85
2021/04/17 07:55:06;;;;;;;21.23;15.73;;;5.40;85.20;;;;;;5027692;28;20203;-81
2021/04/17 07:57:34;;;;;;;17.73;12.67;;;5.50;84.40;;;;;;5027521;28;20216;-82
2021/04/17 08:00:01;;;;;;;17.57;14.07;;;5.70;84.50;;;;;;5016962;28;20198;-85
2021/04/17 08:02:28;;;;;;;17.97;12.93;;;6.00;84.10;;;;;;5025530;28;20286;-83
2021/04/17 08:05:06;;;;;;;16.93;12.40;;;6.00;82.00;;;;;;5029679;28;20195;-83
2021/04/17 08:07:34;;;;;;;14.60;11.50;;;6.30;81.70;;;;;;5028114;28;20211;-86
2021/04/17 08:10:01;;;;;;;14.80;11.57;;;6.50;79.00;;;;;;5020624;28;20199;-85
2021/04/17 08:12:28;;;;;;;16.60;12.80;;;6.50;77.80;;;;;;5027767;28;20664;-87
2021/04/17 08:14:54;;;;;;;18.13;14.57;;;6.50;78.70;;;;;;5032397;28;20202;-86
2021/04/17 08:17:21;;;;;;;18.00;14.10;;;6.40;78.40;;;;;;5027767;28;20203;-87
2021/04/17 08:19:48;;;;;;;20.97;13.60;;;6.30;80.10;;;;;;5034557;28;20676;-85
2021/04/17 08:22:15;;;;;;;18.60;13.80;;;6.30;79.90;;;;;;5039955;28;20737;-84
2021/04/17 08:24:47;;;;;;;16.03;12.90;;;6.40;79.40;;;;;;5033269;28;20265;-86
2021/04/17 08:27:14;;;;;;;18.00;13.00;;;6.30;79.50;;;;;;5030213;28;20230;-86
2021/04/17 08:29:48;;;;;;;17.23;12.93;;;6.20;79.00;;;;;;5034356;28;20212;-89
2021/04/17 08:32:32;;;;;;;14.20;12.13;;;6.20;80.20;;;;;;5190071;22;20227;-86
2021/04/17 08:35:01;;;;;;;12.37;10.73;;;6.40;77.60;;;;;;5086421;28;20200;-87
2021/04/17 08:37:27;;;;;;;13.30;11.00;;;6.80;76.10;;;;;;5086920;28;20200;-86
2021/04/17 08:39:55;;;;;;;14.43;11.20;;;6.90;75.00;;;;;;5093370;28;20218;-88
2021/04/17 08:42:42;;;;;;;13.50;10.97;;;6.80;75.10;;;;;;5091696;28;20220;-86
2021/04/17 08:45:15;;;;;;;13.43;10.47;;;7.00;73.50;;;;;;5091215;28;20232;-86
2021/04/17 08:47:50;;;;;;;13.53;10.13;;;7.10;73.30;;;;;;5088102;28;20283;-86
2021/04/17 08:50:40;;;;;;;11.97;9.20;;;7.20;72.00;;;;;;5085158;28;20252;-88
2021/04/17 08:53:11;;;;;;;11.93;9.23;;;7.20;73.80;;;;;;5087203;28;20239;-86
2021/04/17 08:55:47;;;;;;;10.37;9.27;;;7.20;74.50;;;;;;5096960;28;20216;-89
2021/04/17 08:58:15;;;;;;;12.00;9.17;;;7.50;72.40;;;;;;5093692;28;20204;-88
2021/04/17 09:01:03;;;;;;;11.33;8.80;;;7.70;69.50;;;;;;5091750;28;20287;-87
2021/04/17 09:03:41;;;;;;;10.50;8.63;;;7.90;72.60;;;;;;5092318;28;20204;-89
2021/04/17 09:06:09;;;;;;;10.32;9.18;;;7.90;67.00;;;;;;5089210;28;20232;-87
2021/04/17 09:08:38;;;;;;;9.30;7.30;;;7.80;66.30;;;;;;5094430;28;20193;-89
2021/04/17 09:11:35;;;;;;;8.65;7.72;;;8.00;63.80;;;;;;5087753;28;20277;-88
2021/04/17 09:14:02;;;;;;;7.70;5.97;;;8.30;63.90;;;;;;5088431;28;20189;-87
2021/04/17 09:16:39;;;;;;;7.32;6.05;;;8.60;58.60;;;;;;5086404;28;20247;-87
2021/04/17 09:19:06;;;;;;;6.20;5.38;;;8.80;57.30;;;;;;5092554;28;20196;-91
2021/04/17 09:21:36;;;;;;;6.00;5.40;;;8.80;55.40;;;;;;5086378;28;20303;-88
2021/04/17 09:24:26;;;;;;;8.18;5.07;;;9.00;53.60;;;;;;5092493;28;20228;-88
2021/04/17 09:26:53;;;;;;;5.85;5.25;;;9.60;50.70;;;;;;5090028;28;20228;-87
2021/04/17 09:29:25;;;;;;;7.00;5.47;;;9.60;51.10;;;;;;5089580;28;20204;-88
2021/04/17 09:31:52;;;;;;;6.78;5.30;;;9.10;52.80;;;;;;5079946;28;20225;-86
2021/04/17 09:34:19;;;;;;;4.75;4.30;;;9.40;54.40;;;;;;5074959;28;20727;-87
2021/04/17 09:36:49;;;;;;;4.22;3.83;;;9.60;48.00;;;;;;5073190;28;20383;-91
2021/04/17 09:39:28;;;;;;;8.15;5.10;;;9.70;47.20;;;;;;5072404;28;20551;-86
2021/04/17 09:41:56;;;;;;;7.10;4.85;;;9.30;47.70;;;;;;5076210;28;20219;-87
2021/04/17 09:44:23;;;;;;;7.20;4.78;;;8.90;49.70;;;;;;5080112;28;20216;-86
2021/04/17 09:47:05;;;;;;;8.35;5.35;;;9.20;49.30;;;;;;5079338;28;20249;-86
2021/04/17 09:49:41;;;;;;;7.82;5.72;;;9.50;49.30;;;;;;5076194;28;20648;-85
2021/04/17 09:52:09;;;;;;;8.50;5.45;;;9.40;47.80;;;;;;5077411;28;20675;-93
2021/04/17 09:54:36;;;;;;;7.78;6.43;;;9.40;48.60;;;;;;5074840;28;20676;-87
2021/04/17 09:57:08;;;;;;;8.18;5.72;;;9.30;47.80;;;;;;5079433;28;20229;-87
2021/04/17 09:59:35;;;;;;;6.50;5.80;;;9.10;47.60;;;;;;5083798;28;20193;-88
2021/04/17 10:02:04;;;;;;;6.72;5.43;;;9.70;48.10;;;;;;5081559;28;20217;-87
2021/04/17 10:04:47;;;;;;;9.10;6.35;;;9.70;48.10;;;;;;5101119;28;20203;-87
2021/04/17 10:07:14;;;;;;;7.47;6.30;;;9.90;48.90;;;;;;5072206;28;20289;-86
2021/04/17 10:10:01;;;;;;;8.27;6.45;;;10.30;47.10;;;;;;5088319;28;20197;-88
2021/04/17 10:12:29;;;;;;;9.18;7.00;;;10.10;46.90;;;;;;5089837;28;20220;-87
2021/04/17 10:15:14;;;;;;;8.38;6.93;;;10.00;46.80;;;;;;5085095;28;20597;-88
2021/04/17 10:17:44;;;;;;;7.43;6.45;;;10.40;47.20;;;;;;5080588;28;20229;-89
2021/04/17 10:20:12;;;;;;;7.25;6.50;;;10.80;47.60;;;;;;5076499;28;20221;-88
2021/04/17 10:22:41;;;;;;;9.23;6.75;;;10.90;42.60;;;;;;5089922;28;20280;-88
2021/04/17 10:25:30;;;;;;;9.45;6.97;;;11.30;46.00;;;;;;5072428;28;20204;-88
2021/04/17 10:28:34;;;;;;;8.82;6.35;;;11.20;42.40;;;;;;5076934;28;20224;-88
2021/04/17 10:31:08;;;;;;;7.75;6.82;;;10.60;43.70;;;;;;5056353;28;20233;-89
2021/04/17 10:33:42;;;;;;;9.25;7.30;;;10.40;42.70;;;;;;5080206;28;20206;-88
2021/04/17 10:36:16;;;;;;;10.30;7.53;;;10.10;43.60;;;;;;5079980;28;20232;-87
2021/04/17 10:38:43;;;;;;;8.30;7.32;;;10.20;47.00;;;;;;5076155;28;20215;-88
2021/04/17 10:41:14;;;;;;;9.27;6.90;;;10.30;44.70;;;;;;5077516;28;20225;-87
2021/04/17 10:43:40;;;;;;;7.68;6.82;;;10.60;44.00;;;;;;5075527;28;20283;-89
2021/04/17 10:46:07;;;;;;;7.82;6.72;;;10.80;43.30;;;;;;5074650;28;20259;-86
2021/04/17 10:48:42;;;;;;;7.38;6.57;;;10.90;43.10;;;;;;5080038;28;20208;-87
2021/04/17 10:51:12;;;;;;;8.02;7.22;;;10.70;42.30;;;;;;5075840;28;20232;-87
2021/04/17 10:53:39;;;;;;;7.03;6.28;;;10.20;43.50;;;;;;5079984;28;20197;-89
2021/04/17 10:56:12;;;;;;;9.70;7.10;;;10.20;44.80;;;;;;5076411;28;20232;-87
2021/04/17 10:58:39;;;;;;;9.10;6.50;;;10.10;45.10;;;;;;5073367;28;20198;-87
2021/04/17 11:04:27;;;;;;;7.03;6.32;;;10.20;42.80;;;;;;5085828;28;20169;-90
2021/04/17 11:10:16;;;;;;;8.90;6.80;;;10.40;41.10;;;;;;5067243;28;20227;-87
2021/04/17 11:12:49;;;;;;;9.45;6.72;;;10.80;43.20;;;;;;5082770;28;20551;-85
2021/04/17 11:15:25;;;;;;;9.38;7.20;;;11.00;41.20;;;;;;5083071;28;20299;-85
2021/04/17 11:21:27;;;;;;;9.10;6.45;;;10.60;41.50;;;;;;5095766;28;20349;-90
2021/04/17 11:24:26;;;;;;;7.30;6.53;;;10.50;42.30;;;;;;5085490;28;20289;-91
2021/04/17 11:26:53;;;;;;;8.40;6.68;;;10.80;42.50;;;;;;5076035;28;20229;-88
2021/04/17 11:29:46;;;;;;;6.43;5.80;;;11.00;43.00;;;;;;5084972;28;20280;-86
2021/04/17 11:32:15;;;;;;;10.52;7.47;;;10.80;40.30;;;;;;5081255;28;20622;-86
2021/04/17 11:34:47;;;;;;;7.78;5.45;;;10.60;43.40;;;;;;5079453;28;20535;-88
2021/04/17 11:37:14;;;;;;;7.25;5.53;;;10.60;40.70;;;;;;5079494;28;20223;-87
2021/04/17 11:39:41;;;;;;;6.65;5.95;;;10.40;41.70;;;;;;5082787;28;20213;-87
2021/04/17 11:42:10;;;;;;;6.95;5.80;;;10.40;42.20;;;;;;5083055;28;20260;-85
2021/04/17 11:44:40;;;;;;;9.32;6.50;;;10.30;40.70;;;;;;5083382;28;20227;-85
2021/04/17 11:47:07;;;;;;;6.85;6.07;;;10.10;42.20;;;;;;5083451;28;20709;-88
2021/04/17 11:49:43;;;;;;;8.30;6.25;;;9.80;45.10;;;;;;5083704;28;20189;-87
2021/04/17 11:52:17;;;;;;;9.07;6.10;;;9.70;46.30;;;;;;5082945;28;20225;-87
2021/04/17 11:54:47;;;;;;;8.45;6.43;;;9.60;47.90;;;;;;5082456;28;20333;-91
2021/04/17 11:57:13;;;;;;;6.45;5.70;;;9.80;47.00;;;;;;5079153;28;20221;-87
2021/04/17 11:59:40;;;;;;;8.30;5.80;;;9.50;48.00;;;;;;5079468;28;20201;-88
2021/04/17 12:02:19;;;;;;;7.18;5.95;;;9.20;47.70;;;;;;5074964;28;20248;-87
2021/04/17 12:04:45;;;;;;;7.80;5.60;;;9.10;47.60;;;;;;5082982;28;20254;-87
2021/04/17 12:07:12;;;;;;;7.22;5.97;;;9.10;47.60;;;;;;5080778;28;20225;-90
2021/04/17 12:09:38;;;;;;;7.63;5.90;;;8.80;47.40;;;;;;5082666;28;20281;-92
2021/04/17 12:12:50;;;;;;;10.90;7.00;;;8.70;49.10;;;;;;5083117;28;20237;-91
2021/04/17 12:15:18;;;;;;;8.05;7.05;;;8.50;50.20;;;;;;5085067;28;20303;-88
2021/04/17 12:17:45;;;;;;;8.38;7.45;;;8.50;49.60;;;;;;5078393;28;20299;-92
2021/04/17 12:20:13;;;;;;;8.70;7.50;;;8.40;50.30;;;;;;5082251;28;20738;-91
2021/04/17 12:23:10;;;;;;;9.37;7.63;;;8.40;51.80;;;;;;5057833;28;20208;-86
2021/04/17 12:25:40;;;;;;;10.43;7.87;;;8.30;50.90;;;;;;5056931;28;20198;-88
2021/04/17 12:28:40;;;;;;;9.47;7.73;;;8.20;51.50;;;;;;5060951;28;20221;-90
2021/04/17 12:33:36;;;;;;;12.17;8.67;;;8.00;53.60;;;;;;5053694;28;20229;-90
2021/04/17 12:36:02;;;;;;;11.97;9.30;;;7.90;53.50;;;;;;5062216;28;20206;-87
2021/04/17 12:38:29;;;;;;;11.53;9.17;;;7.90;55.60;;;;;;5059667;28;20201;-86
2021/04/17 12:44:57;;;;;;;13.57;9.60;;;8.00;55.00;;;;;;5059195;28;20184;-87
2021/04/17 12:47:23;;;;;;;11.50;9.50;;;7.90;55.20;;;;;;5057057;28;20280;-86
2021/04/17 12:49:50;;;;;;;12.17;9.77;;;7.90;55.90;;;;;;5058652;28;20273;-87
2021/04/17 12:55:44;;;;;;;10.93;9.30;;;7.90;56.60;;;;;;5057216;28;20555;-86
2021/04/17 12:58:11;;;;;;;11.53;9.10;;;8.00;54.70;;;;;;5059481;28;20197;-86
2021/04/17 13:00:37;;;;;;;11.53;8.70;;;7.90;55.40;;;;;;5058391;28;20244;-86
2021/04/17 13:03:05;;;;;;;11.40;9.20;;;8.00;55.00;;;;;;5057856;28;20195;-86
2021/04/17 13:05:35;;;;;;;11.27;9.67;;;8.00;54.40;;;;;;5061507;28;20217;-86
2021/04/17 13:14:50;;;;;;;11.07;8.93;;;8.10;54.20;;;;;;5054801;28;20193;-86
2021/04/17 13:24:31;;;;;;;13.05;8.55;;;8.40;52.90;;;;;;5066932;28;20654;-87
2021/04/17 13:26:59;;;;;;;10.93;8.57;;;8.70;51.20;;;;;;5067063;28;20733;-89
2021/04/17 13:29:25;;;;;;;12.45;8.82;;;8.90;49.40;;;;;;5060474;28;20209;-85
2021/04/17 13:34:24;;;;;;;12.80;9.05;;;9.00;49.50;;;;;;5059887;28;20213;-83
2021/04/17 13:36:50;;;;;;;10.70;8.45;;;9.20;47.70;;;;;;5060175;28;20225;-83